Orjan Kihlstrom

Orjan Kihlstrom

Statistiques 2026

  • Courses courues : 257
  • Nb de victoires : 41
  • Nb de places : 111
  • Écart gagnant : -
  • Réussite à la gagne : 16%
  • Réussite à la place : 43%
Musique : 1a 5a 3a 5a 5a 1a 7a 2a 3a 2a 3a 8a 6a 4a 5a 4a 0a Da

Orjan Kihlstrom en quelques mots

Orjan Kihlstrom est né le 13 mai 1962 en Suède.

Il possède à son palmarès les deux courses de trot les plus importantes au monde : l'Elitloppet qu'il a remporté en 2003 avec From Above et le Grand Prix d'Amérique dans lequel il s'est imposé en 2014 avec Maharajah. A Vincennes, il a aussi remporté le Prix de France avec Naglo en 2004 et 2005 et le Prix de Paris avec Maharajah en 2011.

DateRangCatégorieAlloc.Dist.HippodromeChevalRed. KmSpé.
28/10/23 1 Trot 136 840€ 2 640m Swe-Jagersro Admiral As 1'12"5 Attelé
28/10/23 5 Trot 44 372€ 1 640m Swe-Jagersro Need'Em 1'12"5 Attelé
28/10/23 8 Trot 45 022€ 3 180m Swe-Jagersro Let It Be V.P. 1'14"6 Attelé
28/10/23 1 Trot 49 308€ 2 140m Swe-Jagersro Glamorous Rain 1'12"6 Attelé
25/11/23 D Trot 15 659€ 3 180m Swe-Jagersro Albert Zonett Attelé
25/11/23 5 Trot 130 838€ 2 140m Swe-Jagersro Nacido Boko 1'14"0 Attelé
25/11/23 4 Trot 15 152€ 1 640m Swe-Jagersro Ikarus Love 1'12"7 Attelé
25/11/23 1 Trot 43 993€ 2 140m Swe-Jagersro Mi Amore Bros 1'14"0 Attelé
25/11/23 5 Trot 56 726€ 2 140m Swe-Jagersro Kentucky River 1'12"5 Attelé
25/11/23 0 Trot 271 616€ 1 640m Swe-Jagersro Valnes Phenix 1'13"3 Attelé
25/11/23 3 Trot 43 359€ 2 140m Swe-Jagersro Credityuan 1'14"6 Attelé
25/11/23 D Trot 48 181€ 2 140m Swe-Jagersro Versace Face Attelé
25/11/23 D Trot 43 359€ 2 140m Swe-Jagersro Illfindmywayhome Attelé
10/03/12 5 Trot 11 506€ 2 140m Swe-Kalmar Friction 1'14"8 Attelé
24/06/12 2 Trot 20 920€ 1 640m Swe-Kalmar Yield Boko 1'11"0 Attelé
24/06/12 D Trot 10 460€ 3 160m Swe-Kalmar Saston Attelé
23/02/13 0 Trot 15 690€ 1 640m Swe-Kalmar Latitude Broline 1'15"0 Attelé
23/06/13 1 Trot 13 075€ 2 140m Swe-Kalmar Oolong 1'14"3 Attelé
23/06/13 5 Trot 15 690€ 1 640m Swe-Kalmar Friction 1'11"6 Attelé
23/06/13 1 Trot 10 460€ 2 640m Swe-Kalmar Fruitcake 1'15"0 Attelé
23/06/13 6 Trot 10 460€ 1 640m Swe-Kalmar Chase Dreamcatcher 1"11'7 Attelé
23/06/13 0 Trot 10 460€ 3 140m Swe-Kalmar Pronger 1'16"2 Attelé
23/06/19 9 Trot 24 198€ 2 140m Swe-Kalmar Zlatan Knick 1'15"7 Attelé
22/06/25 3 Trot 11 794€ 2 140m Swe-Kalmar Belichic 1'15"3 Attelé
22/06/25 4 Trot 20 628€ 3 180m Swe-Kalmar Godfather 1'14"0 Attelé
22/06/25 5 Trot 25 364€ 2 140m Swe-Kalmar Mare Mareh 1'14"9 Attelé
22/06/25 4 Trot 25 364€ 2 140m Swe-Kalmar Nevermind River 1'14"4 Attelé
22/06/25 2 Trot 29 964€ 2 140m Swe-Kalmar Olly Haleryd 1'11"4 Attelé
22/06/25 2 Trot 29 964€ 1 640m Swe-Kalmar Mister Hercules 1'9"2 Attelé
22/06/25 5 Trot 29 964€ 2 140m Swe-Kalmar Jikken 1'12"0 Attelé
22/06/25 2 Trot 7 814€ 2 160m Swe-Kalmar Maraschino 1'15"3 Attelé
05/03/22 0 Trot 7 352€ 2 160m Swe-Kalmar O.M. Genista Attelé
05/03/22 D Trot 21 715€ 2 160m Swe-Kalmar Cassius Ima Attelé
05/03/22 0 Trot 24 048€ 2 640m Swe-Kalmar Strong Heartbeat 1'14"9 Attelé
05/03/22 1 Trot 31 572€ 2 140m Swe-Kalmar Who's Who 1'13"3 Attelé
05/03/22 1 Trot 24 048€ 2 140m Swe-Kalmar Laferrari Dimanche 1'14"9 Attelé
05/03/22 4 Trot 26 762€ 2 140m Swe-Kalmar The Real Star 1'14"2 Attelé
05/03/22 0 Trot 24 048€ 2 140m Swe-Kalmar Honeybee Fro 1'15"7 Attelé
05/03/22 2 Trot 24 048€ 2 140m Swe-Kalmar Graces Candy 1'14"0 Attelé
24/06/18 2 Trot 19 398€ 1 640m Swe-Kalmar Volstead 1'10"6 Attelé
24/06/18 5 Trot 12 124€ 3 180m Swe-Kalmar Balfour 1'15"5 Attelé
24/06/18 2 Trot 12 124€ 2 140m Swe-Kalmar In Toto Sund 1'13"5 Attelé
24/06/18 6 Trot 12 124€ 2 140m Swe-Kalmar Uppohoppa 1'14"0 Attelé
23/06/19 3 Trot 24 198€ 2 140m Swe-Kalmar In Toto Sund 1'12"1 Attelé
16/09/22 1 Trot 6 529€ 1 640m Swe-Kalmar Darlington 1'12"9 Attelé
16/09/22 2 Trot 10 215€ 2 180m Swe-Kalmar Longgone River 1'14"8 Attelé
16/09/22 0 Trot 6 529€ 2 140m Swe-Kalmar S.K. Elza Attelé
16/09/22 D Trot 6 529€ 2 140m Swe-Kalmar Giannas Love Attelé
16/09/22 6 Trot 30 363€ 2 180m Swe-Kalmar Micro Vick 1'13"9 Attelé
16/09/22 6 Trot 30 363€ 3 160m Swe-Kalmar Persos Otello 1'15"5 Attelé